CheckWX is a tool to help pilots better visualize weather data.  It is not intended as a substitute for an official pre-flight weather briefing.

01:08:36 UTC

LIRA TAF
Ciampino–G. B. Pastine International Airport
Roma, Italy
TAF LIRA 232300Z 2400/2424 02012KT CAVOK

Feb-24@
00:00 UTC

Feb-24 @ 00:00 UTC

Feb-25@
00:00 UTC

Feb-25 @ 00:00 UTC

TAF LIRA 232300Z 2400/2424 02012KT CAVOK
Wind
  • 020° at 12 KTS
Conditions
No significant weather
Cloud Levels
  • No significant clouds